createdAt,value
2022-09-01T00:02:21.099Z,98140.25
2022-09-01T00:04:47.849Z,98134.66
2022-09-01T00:07:16.869Z,98135.66
2022-09-01T00:09:43.597Z,98136.53
2022-09-01T00:12:10.179Z,98140.06
2022-09-01T00:14:41.591Z,98133.72
2022-09-01T00:17:10.673Z,98138.94
2022-09-01T00:19:37.926Z,98137.94
2022-09-01T00:22:05.074Z,98137.13
2022-09-01T00:24:32.395Z,98140.06
2022-09-01T00:26:59.045Z,98153.59
2022-09-01T00:29:26.185Z,98141.34
2022-09-01T00:31:53.239Z,98145.91
2022-09-01T00:34:20.409Z,98146.72
2022-09-01T00:36:48.079Z,98153.59
2022-09-01T00:39:15.586Z,98152.31
2022-09-01T00:41:44.145Z,98157.00
2022-09-01T00:44:14.174Z,98155.34
2022-09-01T00:46:50.416Z,98157.53
2022-09-01T00:49:44.994Z,98149.84
2022-09-01T00:52:15.748Z,98148.84
2022-09-01T00:54:46.298Z,98159.00
2022-09-01T00:57:15.448Z,98167.53
2022-09-01T00:59:56.634Z,98177.09
2022-09-01T01:02:23.704Z,98174.28
2022-09-01T01:04:52.635Z,98175.00
2022-09-01T01:07:22.969Z,98164.03
2022-09-01T01:09:51.282Z,98163.84
2022-09-01T01:12:18.548Z,98167.41
2022-09-01T01:14:50.438Z,98162.34
2022-09-01T01:17:19.995Z,98160.84
2022-09-01T01:20:09.325Z,98162.91
2022-09-01T01:22:58.048Z,98162.34
2022-09-01T01:25:25.524Z,98165.28
2022-09-01T01:27:52.551Z,98156.72
2022-09-01T01:30:20.959Z,98163.94
2022-09-01T01:32:49.358Z,98166.56
2022-09-01T01:35:17.532Z,98164.38
2022-09-01T01:37:49.051Z,98158.69
2022-09-01T01:40:22.751Z,98152.44
2022-09-01T01:42:52.653Z,98155.72
2022-09-01T01:45:22.834Z,98154.22
2022-09-01T01:47:53.495Z,98153.84
2022-09-01T01:50:29.892Z,98149.78
2022-09-01T01:52:58.807Z,98142.56
2022-09-01T01:55:28.989Z,98144.53
2022-09-01T01:57:59.190Z,98151.47
2022-09-01T02:00:35.042Z,98145.78
2022-09-01T02:03:02.882Z,98146.22
2022-09-01T02:05:33.288Z,98149.81
2022-09-01T02:08:04.370Z,98140.00
2022-09-01T02:10:34.546Z,98145.25
2022-09-01T02:13:07.108Z,98139.34
2022-09-01T02:15:42.321Z,98133.13
2022-09-01T02:18:09.074Z,98135.28
2022-09-01T02:20:35.590Z,98133.84
2022-09-01T02:23:10.770Z,98129.97
2022-09-01T02:26:05.239Z,98132.63
2022-09-01T02:28:37.165Z,98130.53
2022-09-01T02:31:08.970Z,98131.34
2022-09-01T02:33:39.357Z,98134.63
2022-09-01T02:36:13.873Z,98135.25
2022-09-01T02:38:46.814Z,98141.69
2022-09-01T02:41:21.745Z,98131.06
2022-09-01T02:43:49.106Z,98134.88
2022-09-01T02:46:16.279Z,98131.66
2022-09-01T02:48:46.099Z,98140.13
2022-09-01T02:51:16.815Z,98145.88
2022-09-01T02:53:49.715Z,98138.69
2022-09-01T02:56:18.211Z,98135.91
2022-09-01T02:58:46.471Z,98136.53
2022-09-01T03:01:22.660Z,98139.31
2022-09-01T03:03:51.521Z,98126.63
2022-09-01T03:06:24.008Z,98128.59
2022-09-01T03:08:52.687Z,98128.59
2022-09-01T03:11:19.315Z,98120.44
2022-09-01T03:13:46.553Z,98125.31
2022-09-01T03:16:13.510Z,98127.63
2022-09-01T03:18:40.404Z,98118.94
2022-09-01T03:21:08.469Z,98118.84
2022-09-01T03:23:35.810Z,98117.72
2022-09-01T03:26:02.961Z,98118.53
2022-09-01T03:28:30.117Z,98113.13
2022-09-01T03:30:58.183Z,98112.97
2022-09-01T03:33:27.962Z,98115.44
2022-09-01T03:35:56.856Z,98099.41
2022-09-01T03:38:25.246Z,98101.19
2022-09-01T03:41:00.899Z,98108.22
2022-09-01T03:43:34.483Z,98103.84
2022-09-01T03:46:03.524Z,98107.09
2022-09-01T03:48:31.979Z,98103.69
2022-09-01T03:51:02.566Z,98102.09
2022-09-01T03:53:34.242Z,98097.34
2022-09-01T03:56:01.568Z,98108.13
2022-09-01T03:58:28.598Z,98098.19
2022-09-01T04:01:00.841Z,98099.66
2022-09-01T04:03:31.902Z,98098.34
2022-09-01T04:06:01.440Z,98088.19
2022-09-01T04:08:32.492Z,98089.50
2022-09-01T04:11:05.199Z,98084.63
2022-09-01T04:13:37.245Z,98090.84
2022-09-01T04:16:10.632Z,98085.25
2022-09-01T04:18:40.086Z,98076.59
2022-09-01T04:21:08.102Z,98083.78
2022-09-01T04:23:37.144Z,98082.31
2022-09-01T04:26:11.374Z,98077.09
2022-09-01T04:28:45.898Z,98081.03
2022-09-01T04:31:19.328Z,98076.63
2022-09-01T04:33:52.774Z,98085.41
2022-09-01T04:36:25.191Z,98083.31
2022-09-01T04:38:57.674Z,98080.69
2022-09-01T04:41:31.005Z,98079.06
2022-09-01T04:44:04.650Z,98087.06
2022-09-01T04:46:39.583Z,98084.28
2022-09-01T04:49:13.030Z,98082.97
2022-09-01T04:51:42.276Z,98086.56
2022-09-01T04:54:14.766Z,98093.91
2022-09-01T04:56:45.207Z,98091.44
2022-09-01T04:59:17.233Z,98091.44
2022-09-01T05:01:51.008Z,98095.53
2022-09-01T05:04:24.434Z,98092.13
2022-09-01T05:06:57.020Z,98084.41
2022-09-01T05:09:25.224Z,98087.53
2022-09-01T05:12:12.961Z,98084.25
2022-09-01T05:14:48.632Z,98100.25
2022-09-01T05:17:18.653Z,98097.63
2022-09-01T05:19:48.386Z,98098.47
2022-09-01T05:22:17.691Z,98103.38
2022-09-01T05:24:55.414Z,98098.31
2022-09-01T05:27:22.976Z,98099.44
2022-09-01T05:29:50.439Z,98102.25
2022-09-01T05:32:17.638Z,98107.78
2022-09-01T05:34:46.076Z,98099.63
2022-09-01T05:37:14.567Z,98107.94
2022-09-01T05:39:41.352Z,98122.16
2022-09-01T05:42:08.401Z,98117.25
2022-09-01T05:44:44.017Z,98113.97
2022-09-01T05:47:20.970Z,98110.59
2022-09-01T05:49:50.446Z,98118.28
2022-09-01T05:52:17.169Z,98107.50
2022-09-01T05:54:45.991Z,98107.81
2022-09-01T05:57:33.165Z,98109.78
2022-09-01T06:00:00.394Z,98117.28
2022-09-01T06:02:27.723Z,98119.22
2022-09-01T06:04:57.307Z,98122.50
2022-09-01T06:07:29.277Z,98123.63
2022-09-01T06:09:59.743Z,98123.94
2022-09-01T06:12:28.069Z,98125.41
2022-09-01T06:14:56.153Z,98127.22
2022-09-01T06:17:25.746Z,98133.59
2022-09-01T06:19:58.535Z,98134.22
2022-09-01T06:22:28.191Z,98141.72
2022-09-01T06:25:02.417Z,98128.50
2022-09-01T06:27:41.157Z,98131.91
2022-09-01T06:30:15.020Z,98140.56
2022-09-01T06:32:49.604Z,98138.72
2022-09-01T06:35:18.108Z,98139.88
2022-09-01T06:37:46.126Z,98146.75
2022-09-01T06:40:25.453Z,98143.63
2022-09-01T06:42:53.279Z,98143.47
2022-09-01T06:45:22.689Z,98151.28
2022-09-01T06:47:52.301Z,98150.78
2022-09-01T06:53:32.554Z,98139.69
2022-09-01T06:56:02.866Z,98148.19
2022-09-01T06:58:31.154Z,98149.16
2022-09-01T07:00:57.946Z,98144.91
2022-09-01T07:03:25.757Z,98148.50
2022-09-01T07:06:07.004Z,98144.41
2022-09-01T07:12:24.393Z,98151.59
2022-09-01T07:17:42.319Z,98146.97
2022-09-01T07:20:26.775Z,98146.81
2022-09-01T07:23:04.494Z,98144.22
2022-09-01T07:26:00.630Z,98146.84
2022-09-01T07:28:39.872Z,98154.97
2022-09-01T07:39:55.164Z,98161.06
2022-09-01T07:51:42.119Z,98164.94
2022-09-01T07:54:09.166Z,98162.97
2022-09-01T07:56:40.179Z,98163.94
2022-09-01T07:59:12.703Z,98160.66
2022-09-01T08:02:05.798Z,98163.56
2022-09-01T08:04:34.041Z,98159.63
2022-09-01T08:07:01.139Z,98160.72
2022-09-01T08:09:37.874Z,98158.22
2022-09-01T08:12:08.346Z,98157.81
2022-09-01T08:14:42.234Z,98160.72
2022-09-01T08:17:18.363Z,98152.97
2022-09-01T08:19:58.952Z,98157.16
2022-09-01T08:22:48.662Z,98156.53
2022-09-01T08:25:25.045Z,98151.91
2022-09-01T08:27:59.677Z,98146.16
2022-09-01T08:30:27.862Z,98157.03
2022-09-01T08:32:54.854Z,98147.47
2022-09-01T08:35:22.130Z,98153.53
2022-09-01T08:37:48.707Z,98160.03
2022-09-01T08:40:21.221Z,98153.91
2022-09-01T08:43:34.361Z,98146.66
2022-09-01T08:46:13.030Z,98149.59
2022-09-01T08:49:24.097Z,98148.75
2022-09-01T08:52:27.991Z,98142.50
2022-09-01T08:55:06.199Z,98148.22
2022-09-01T08:57:39.628Z,98145.41
2022-09-01T09:00:23.334Z,98144.88
2022-09-01T09:03:02.614Z,98147.13
2022-09-01T09:05:40.151Z,98154.47
2022-09-01T09:08:54.375Z,98146.44
2022-09-01T09:12:01.665Z,98149.31
2022-09-01T09:14:49.200Z,98146.16
2022-09-01T09:17:18.716Z,98144.53
2022-09-01T09:19:45.662Z,98143.41
2022-09-01T09:22:19.431Z,98149.31
2022-09-01T09:24:52.538Z,98143.13
2022-09-01T09:27:29.530Z,98141.59
2022-09-01T09:30:04.355Z,98133.38
2022-09-01T09:33:15.946Z,98139.16
2022-09-01T09:35:42.071Z,98137.63
2022-09-01T09:38:21.681Z,98132.19
2022-09-01T09:44:41.241Z,98135.97
2022-09-01T09:47:33.496Z,98134.25
2022-09-01T09:50:15.345Z,98129.00
2022-09-01T09:52:43.166Z,98130.91
2022-09-01T09:55:30.193Z,98131.41
2022-09-01T09:57:59.929Z,98121.50
2022-09-01T10:00:30.361Z,98117.00
2022-09-01T10:03:11.216Z,98121.38
2022-09-01T10:05:56.452Z,98121.38
2022-09-01T10:08:37.103Z,98113.16
2022-09-01T10:11:06.007Z,98117.13
2022-09-01T10:13:36.640Z,98112.91
2022-09-01T10:16:10.396Z,98113.53
2022-09-01T10:18:41.588Z,98112.34
2022-09-01T10:21:12.402Z,98105.16
2022-09-01T10:23:41.403Z,98102.22
2022-09-01T10:26:22.645Z,98099.72
2022-09-01T10:29:01.342Z,98096.53
2022-09-01T10:31:32.526Z,98093.59
2022-09-01T10:34:02.795Z,98092.53
2022-09-01T10:36:33.513Z,98084.50
2022-09-01T10:39:06.139Z,98082.41
2022-09-01T10:41:59.833Z,98076.25
2022-09-01T10:44:33.649Z,98078.97
2022-09-01T10:47:24.032Z,98086.97
2022-09-01T10:49:50.668Z,98084.34
2022-09-01T10:52:43.333Z,98079.91
2022-09-01T10:55:15.227Z,98076.13
2022-09-01T10:57:51.090Z,98076.44
2022-09-01T11:00:36.192Z,98079.06
2022-09-01T11:06:13.357Z,98072.09
2022-09-01T11:08:48.295Z,98067.50
2022-09-01T11:11:44.219Z,98066.78
2022-09-01T11:14:20.102Z,98067.22
2022-09-01T11:17:26.242Z,98067.25
2022-09-01T11:20:27.561Z,98063.84
2022-09-01T11:22:57.029Z,98066.50
2022-09-01T11:25:42.281Z,98068.91
2022-09-01T11:28:15.172Z,98066.47
2022-09-01T11:30:55.315Z,98065.84
2022-09-01T11:33:47.955Z,98066.69
2022-09-01T11:36:35.387Z,98057.34
2022-09-01T11:39:29.998Z,98065.25
2022-09-01T11:42:04.377Z,98054.13
2022-09-01T11:44:52.763Z,98057.78
2022-09-01T11:47:44.146Z,98053.13
2022-09-01T11:50:27.990Z,98059.81
2022-09-01T11:53:02.549Z,98051.50
2022-09-01T11:55:43.574Z,98052.78
2022-09-01T11:58:39.134Z,98051.59
2022-09-01T12:01:31.181Z,98041.03
2022-09-01T12:03:58.940Z,98039.63
2022-09-01T12:06:29.522Z,98048.75
2022-09-01T12:09:03.052Z,98042.88
2022-09-01T12:11:33.070Z,98045.50
2022-09-01T12:14:11.559Z,98040.78
2022-09-01T12:16:42.380Z,98038.34
2022-09-01T12:19:24.026Z,98035.31
2022-09-01T12:22:00.370Z,98040.34
2022-09-01T12:24:30.460Z,98045.22
2022-09-01T12:27:01.099Z,98037.72
2022-09-01T12:29:32.168Z,98038.13
2022-09-01T12:32:00.405Z,98035.91
2022-09-01T12:34:28.774Z,98045.25
2022-09-01T12:37:12.834Z,98037.13
2022-09-01T12:39:46.130Z,98035.09
2022-09-01T12:42:27.200Z,98040.19
2022-09-01T12:45:05.255Z,98041.59
2022-09-01T12:47:38.356Z,98034.31
2022-09-01T12:50:16.453Z,98040.75
2022-09-01T12:52:53.810Z,98037.53
2022-09-01T12:58:12.177Z,98027.41
2022-09-01T13:00:58.792Z,98026.41
2022-09-01T13:03:27.648Z,98033.28
2022-09-01T13:05:56.146Z,98036.72
2022-09-01T13:08:28.937Z,98026.59
2022-09-01T13:11:01.152Z,98025.81
2022-09-01T13:13:28.616Z,98028.50
2022-09-01T13:16:00.047Z,98026.47
2022-09-01T13:18:28.654Z,98023.00
2022-09-01T13:20:56.493Z,98032.16
2022-09-01T13:23:23.965Z,98021.19
2022-09-01T13:25:50.667Z,98026.47
2022-09-01T13:28:17.903Z,98030.31
2022-09-01T13:31:28.559Z,98029.09
2022-09-01T13:36:45.240Z,98017.13
2022-09-01T13:39:13.738Z,98009.41
2022-09-01T13:41:40.314Z,98004.75
2022-09-01T13:44:09.902Z,98005.78
2022-09-01T13:46:58.947Z,98005.59
2022-09-01T13:52:10.550Z,97991.78
2022-09-01T13:54:37.174Z,97988.09
2022-09-01T13:57:04.059Z,97988.56
2022-09-01T13:59:30.855Z,97982.84
2022-09-01T14:01:57.598Z,97993.19
2022-09-01T14:04:24.377Z,97991.00
2022-09-01T14:06:51.423Z,97990.16
2022-09-01T14:09:18.174Z,97989.56
2022-09-01T14:11:45.157Z,98000.31
2022-09-01T14:14:11.974Z,97999.28
2022-09-01T14:16:38.705Z,97997.25
2022-09-01T14:19:05.419Z,97995.44
2022-09-01T14:21:32.349Z,97997.06
2022-09-01T14:23:59.628Z,97990.97
2022-09-01T14:26:28.095Z,97985.31
2022-09-01T14:28:55.086Z,97991.38
2022-09-01T14:31:22.203Z,97985.72
2022-09-01T14:33:49.137Z,97981.25
2022-09-01T14:36:25.107Z,97982.47
2022-09-01T14:38:52.938Z,97980.41
2022-09-01T14:41:24.105Z,97981.00
2022-09-01T14:43:57.665Z,97986.06
2022-09-01T14:46:26.748Z,97982.41
2022-09-01T14:48:53.438Z,97990.53
2022-09-01T14:52:10.323Z,97994.84
2022-09-01T14:54:15.100Z,97993.38
2022-09-01T14:56:41.902Z,97993.56
2022-09-01T14:59:09.481Z,97993.31
2022-09-01T15:01:36.555Z,97995.97
2022-09-01T15:04:03.909Z,97996.94
2022-09-01T15:06:31.260Z,97992.28
2022-09-01T15:08:57.956Z,97983.38
2022-09-01T15:11:24.598Z,97991.69
2022-09-01T15:13:52.142Z,98000.81
2022-09-01T15:16:23.243Z,97994.09
2022-09-01T15:18:50.566Z,97997.78
2022-09-01T15:21:30.719Z,97990.91
2022-09-01T15:23:59.186Z,97987.84
2022-09-01T15:26:26.457Z,97990.88
2022-09-01T15:28:53.903Z,97989.47
2022-09-01T15:31:28.623Z,97986.44
2022-09-01T15:34:03.234Z,97983.19
2022-09-01T15:36:30.789Z,97981.38
2022-09-01T15:38:58.688Z,97975.13
2022-09-01T15:41:30.768Z,97981.00
2022-09-01T15:43:58.327Z,97976.56
2022-09-01T15:46:32.024Z,97979.38
2022-09-01T15:49:00.488Z,97985.25
2022-09-01T15:51:37.349Z,97995.06
2022-09-01T15:54:07.844Z,97987.56
2022-09-01T15:56:35.088Z,97995.00
2022-09-01T15:59:04.219Z,97998.84
2022-09-01T16:01:33.402Z,98002.88
2022-09-01T16:04:01.189Z,98005.50
2022-09-01T16:06:28.000Z,98001.03
2022-09-01T16:08:55.112Z,98000.81
2022-09-01T16:11:23.521Z,98001.41
2022-09-01T16:13:53.673Z,98013.34
2022-09-01T16:16:40.956Z,98014.75
2022-09-01T16:19:17.118Z,98020.00
2022-09-01T16:22:02.208Z,98021.59
2022-09-01T16:24:29.443Z,98017.34
2022-09-01T16:26:56.702Z,98021.59
2022-09-01T16:29:40.990Z,98017.34
2022-09-01T16:32:11.281Z,98022.59
2022-09-01T16:34:46.690Z,98025.97
2022-09-01T16:37:16.988Z,98029.00
2022-09-01T16:39:53.777Z,98033.41
2022-09-01T16:42:40.360Z,98034.41
2022-09-01T16:45:28.381Z,98035.81
2022-09-01T16:47:57.797Z,98035.00
2022-09-01T16:50:40.189Z,98046.72
2022-09-01T16:53:15.792Z,98045.72
2022-09-01T16:55:48.396Z,98056.84
2022-09-01T16:58:25.472Z,98053.38
2022-09-01T17:00:58.774Z,98053.38
2022-09-01T17:04:01.033Z,98065.53
2022-09-01T17:06:31.810Z,98054.41
2022-09-01T17:09:10.522Z,98054.56
2022-09-01T17:11:49.111Z,98059.41
2022-09-01T17:14:27.681Z,98060.94
2022-09-01T17:17:08.250Z,98068.22
2022-09-01T17:19:39.156Z,98072.25
2022-09-01T17:22:16.303Z,98075.19
2022-09-01T17:24:58.104Z,98077.63
2022-09-01T17:27:48.034Z,98080.72
2022-09-01T17:30:14.910Z,98081.50
2022-09-01T17:33:05.010Z,98077.03
2022-09-01T17:35:55.940Z,98081.44
2022-09-01T17:38:49.184Z,98087.91
2022-09-01T17:41:37.310Z,98094.13
2022-09-01T17:44:22.156Z,98100.53
2022-09-01T17:46:59.193Z,98097.03
2022-09-01T17:49:46.032Z,98102.00
2022-09-01T17:52:31.074Z,98110.97
2022-09-01T17:55:43.689Z,98110.69
2022-09-01T17:58:39.615Z,98119.47
2022-09-01T18:01:09.776Z,98141.66
2022-09-01T18:03:54.363Z,98132.84
2022-09-01T18:06:52.644Z,98142.41
2022-09-01T18:09:24.074Z,98141.16
2022-09-01T18:11:57.914Z,98139.34
2022-09-01T18:14:30.488Z,98138.19
2022-09-01T18:16:57.058Z,98145.59
2022-09-01T18:19:28.920Z,98145.41
2022-09-01T18:22:00.408Z,98142.22
2022-09-01T18:24:35.439Z,98143.44
2022-09-01T18:27:02.023Z,98151.28
2022-09-01T18:29:31.211Z,98157.97
2022-09-01T18:32:32.190Z,98164.50
2022-09-01T18:35:13.835Z,98171.47
2022-09-01T18:38:18.067Z,98179.63
2022-09-01T18:41:02.174Z,98185.72
2022-09-01T18:43:44.256Z,98185.72
2022-09-01T18:46:58.113Z,98194.56
2022-09-01T18:49:33.762Z,98201.88
2022-09-01T18:52:37.507Z,98194.94
2022-09-01T18:55:21.117Z,98193.25
2022-09-01T18:57:53.186Z,98201.94
2022-09-01T19:00:22.100Z,98193.97
2022-09-01T19:03:07.576Z,98210.41
2022-09-01T19:05:49.296Z,98220.91
2022-09-01T19:08:51.416Z,98225.66
2022-09-01T19:11:34.661Z,98227.13
2022-09-01T19:14:16.719Z,98227.94
2022-09-01T19:17:02.035Z,98236.44
2022-09-01T19:19:37.490Z,98243.97
2022-09-01T19:22:04.262Z,98243.59
2022-09-01T19:24:43.449Z,98240.63
2022-09-01T19:27:14.584Z,98239.47
2022-09-01T19:29:49.818Z,98245.56
2022-09-01T19:32:19.387Z,98244.41
2022-09-01T19:34:53.272Z,98248.50
2022-09-01T19:37:21.359Z,98256.00
2022-09-01T19:39:53.987Z,98257.16
2022-09-01T19:42:25.361Z,98261.44
2022-09-01T19:45:27.798Z,98274.56
2022-09-01T19:48:35.059Z,98287.56
2022-09-01T19:51:20.591Z,98308.69
2022-09-01T19:54:22.438Z,98306.59
2022-09-01T19:56:54.343Z,98298.59
2022-09-01T19:59:28.180Z,98305.78
2022-09-01T20:02:09.225Z,98315.41
2022-09-01T20:04:48.922Z,98313.16
2022-09-01T20:07:34.508Z,98317.25
2022-09-01T20:10:01.637Z,98309.84
2022-09-01T20:12:41.424Z,98318.66
2022-09-01T20:15:13.645Z,98318.19
2022-09-01T20:17:48.309Z,98331.09
2022-09-01T20:20:38.234Z,98339.13
2022-09-01T20:23:11.246Z,98338.81
2022-09-01T20:25:46.400Z,98342.09
2022-09-01T20:29:04.077Z,98345.53
2022-09-01T20:31:41.792Z,98351.28
2022-09-01T20:34:17.078Z,98347.88
2022-09-01T20:36:48.946Z,98353.56
2022-09-01T20:39:46.589Z,98357.34
2022-09-01T20:42:31.338Z,98360.13
2022-09-01T20:45:03.186Z,98360.44
2022-09-01T20:47:31.605Z,98355.38
2022-09-01T20:50:00.977Z,98353.59
2022-09-01T20:52:33.476Z,98369.22
2022-09-01T20:55:30.550Z,98358.75
2022-09-01T20:57:57.208Z,98360.69
2022-09-01T21:00:28.888Z,98365.59
2022-09-01T21:03:02.701Z,98372.59
2022-09-01T21:05:41.617Z,98367.22
2022-09-01T21:08:37.063Z,98371.28
2022-09-01T21:11:20.890Z,98373.91
2022-09-01T21:14:14.018Z,98373.59
2022-09-01T21:17:11.506Z,98364.78
2022-09-01T21:20:08.409Z,98373.13
2022-09-01T21:22:35.292Z,98376.91
2022-09-01T21:25:02.140Z,98378.88
2022-09-01T21:27:37.019Z,98383.28
2022-09-01T21:30:10.170Z,98389.81
2022-09-01T21:32:37.322Z,98397.03
2022-09-01T21:35:06.999Z,98408.31
2022-09-01T21:37:33.776Z,98408.31
2022-09-01T21:40:00.693Z,98419.00
2022-09-01T21:42:32.852Z,98424.53
2022-09-01T21:45:01.625Z,98426.00
2022-09-01T21:47:28.625Z,98423.72
2022-09-01T21:49:55.827Z,98419.59
2022-09-01T21:52:22.599Z,98420.56
2022-09-01T21:54:49.274Z,98427.13
2022-09-01T21:57:15.963Z,98421.22
2022-09-01T21:59:42.582Z,98418.16
2022-09-01T22:02:09.259Z,98417.53
2022-09-01T22:04:37.630Z,98413.09
2022-09-01T22:07:05.576Z,98408.97
2022-09-01T22:09:32.540Z,98403.41
2022-09-01T22:11:59.062Z,98402.47
2022-09-01T22:14:27.951Z,98404.09
2022-09-01T22:16:54.745Z,98407.53
2022-09-01T22:19:21.456Z,98401.31
2022-09-01T22:21:48.452Z,98409.63
2022-09-01T22:24:19.044Z,98408.53
2022-09-01T22:26:46.730Z,98416.53
2022-09-01T22:29:13.368Z,98413.75
2022-09-01T22:31:40.584Z,98417.28
2022-09-01T22:34:07.651Z,98407.31
2022-09-01T22:36:38.754Z,98417.13
2022-09-01T22:39:07.869Z,98415.66
2022-09-01T22:41:35.535Z,98424.16
2022-09-01T22:44:03.550Z,98427.28
2022-09-01T22:46:31.151Z,98425.97
2022-09-01T22:48:59.508Z,98425.78
2022-09-01T22:51:26.722Z,98432.69
2022-09-01T22:53:54.572Z,98434.63
2022-09-01T22:56:28.442Z,98432.31
2022-09-01T22:58:56.942Z,98433.94
2022-09-01T23:01:26.867Z,98430.50
2022-09-01T23:03:56.217Z,98434.44
2022-09-01T23:06:28.024Z,98443.56
2022-09-01T23:08:59.954Z,98434.88
2022-09-01T23:11:27.383Z,98432.94
2022-09-01T23:13:54.774Z,98440.47
2022-09-01T23:16:23.367Z,98438.50
2022-09-01T23:18:51.492Z,98433.56
2022-09-01T23:21:22.240Z,98443.50
2022-09-01T23:23:50.723Z,98447.53
2022-09-01T23:26:26.709Z,98456.66
2022-09-01T23:28:54.062Z,98458.09
2022-09-01T23:31:24.625Z,98450.00
2022-09-01T23:33:51.930Z,98459.72
2022-09-01T23:36:24.769Z,98454.59
2022-09-01T23:38:52.409Z,98468.78
2022-09-01T23:41:30.881Z,98455.03
2022-09-01T23:44:01.368Z,98458.34
2022-09-01T23:46:32.420Z,98451.72
2022-09-01T23:48:59.054Z,98457.19
2022-09-01T23:51:26.005Z,98464.44
2022-09-01T23:53:53.483Z,98461.75
2022-09-01T23:56:22.946Z,98469.38
2022-09-01T23:58:50.089Z,98484.28
